createdAt,value
2023-02-23T00:01:54.275Z,6.24
2023-02-23T00:04:21.693Z,6.29
2023-02-23T00:06:48.429Z,6.33
2023-02-23T00:09:24.789Z,6.18
2023-02-23T00:11:56.582Z,6.31
2023-02-23T00:14:28.955Z,6.31
2023-02-23T00:16:56.569Z,6.17
2023-02-23T00:19:24.964Z,6.29
2023-02-23T00:21:53.094Z,6.33
2023-02-23T00:24:20.988Z,6.27
2023-02-23T00:26:51.255Z,6.30
2023-02-23T00:29:21.496Z,6.30
2023-02-23T00:31:49.339Z,6.29
2023-02-23T00:34:21.665Z,6.29
2023-02-23T00:36:54.519Z,6.19
2023-02-23T00:39:24.836Z,6.24
2023-02-23T00:41:52.725Z,6.23
2023-02-23T00:44:21.832Z,6.14
2023-02-23T00:46:51.462Z,6.11
2023-02-23T00:49:19.994Z,5.99
2023-02-23T00:51:47.352Z,6.10
2023-02-23T00:54:15.820Z,5.95
2023-02-23T00:56:43.503Z,6.10
2023-02-23T00:59:10.703Z,6.11
2023-02-23T01:01:38.623Z,5.99
2023-02-23T01:04:07.357Z,6.14
2023-02-23T01:06:34.807Z,6.10
2023-02-23T01:09:05.443Z,6.10
2023-02-23T01:11:32.251Z,6.11
2023-02-23T01:14:00.282Z,6.05
2023-02-23T01:16:29.888Z,6.10
2023-02-23T01:18:58.893Z,6.08
2023-02-23T01:21:29.545Z,6.07
2023-02-23T01:23:57.280Z,6.10
2023-02-23T01:26:30.305Z,6.08
2023-02-23T01:29:03.267Z,6.08
2023-02-23T01:31:30.802Z,6.07
2023-02-23T01:34:00.454Z,5.97
2023-02-23T01:36:32.891Z,5.92
2023-02-23T01:39:00.548Z,5.92
2023-02-23T01:41:33.033Z,6.00
2023-02-23T01:44:01.423Z,5.97
2023-02-23T01:46:28.163Z,5.97
2023-02-23T01:48:56.533Z,5.85
2023-02-23T01:51:27.879Z,5.97
2023-02-23T01:54:07.350Z,5.95
2023-02-23T01:56:43.489Z,5.95
2023-02-23T01:59:13.179Z,5.96
2023-02-23T02:01:40.894Z,5.92
2023-02-23T02:04:09.098Z,5.96
2023-02-23T02:06:39.309Z,5.94
2023-02-23T02:09:17.457Z,5.83
2023-02-23T02:11:46.551Z,5.84
2023-02-23T02:14:17.729Z,5.92
2023-02-23T02:16:56.337Z,5.91
2023-02-23T02:19:37.179Z,5.75
2023-02-23T02:22:28.459Z,5.86
2023-02-23T02:25:18.508Z,5.86
2023-02-23T02:28:10.714Z,5.84
2023-02-23T02:30:55.438Z,5.85
2023-02-23T02:33:34.821Z,5.68
2023-02-23T02:36:07.618Z,5.79
2023-02-23T02:38:56.053Z,5.66
2023-02-23T02:41:43.738Z,5.62
2023-02-23T02:44:28.951Z,5.65
2023-02-23T02:47:04.912Z,5.67
2023-02-23T02:49:42.944Z,5.68
2023-02-23T02:52:18.380Z,5.69
2023-02-23T02:54:53.960Z,5.68
2023-02-23T02:57:25.328Z,5.65
2023-02-23T03:00:10.964Z,5.61
2023-02-23T03:02:58.862Z,5.62
2023-02-23T03:05:49.051Z,5.61
2023-02-23T03:08:57.783Z,5.59
2023-02-23T03:11:54.046Z,5.55
2023-02-23T03:14:56.822Z,5.60
2023-02-23T03:17:58.718Z,5.61
2023-02-23T03:20:53.473Z,5.53
2023-02-23T03:23:48.019Z,5.56
2023-02-23T03:26:47.084Z,5.56
2023-02-23T03:30:06.100Z,5.57
2023-02-23T03:33:18.866Z,5.55
2023-02-23T03:36:04.139Z,5.54
2023-02-23T03:39:04.125Z,5.51
2023-02-23T03:41:50.819Z,5.51
2023-02-23T03:44:44.264Z,5.51
2023-02-23T03:47:33.857Z,5.46
2023-02-23T03:50:22.909Z,5.48
2023-02-23T03:53:13.168Z,5.49
2023-02-23T03:56:02.466Z,5.50
2023-02-23T03:58:54.621Z,5.47
2023-02-23T04:01:42.120Z,5.34
2023-02-23T04:04:29.219Z,5.41
2023-02-23T04:07:17.269Z,5.43
2023-02-23T04:10:03.088Z,5.45
2023-02-23T04:12:51.522Z,5.46
2023-02-23T04:15:26.482Z,5.42
2023-02-23T04:17:53.931Z,5.38
2023-02-23T04:20:22.192Z,5.41
2023-02-23T04:22:49.003Z,5.32
2023-02-23T04:25:18.035Z,5.28
2023-02-23T04:27:45.091Z,5.37
2023-02-23T04:30:12.458Z,5.25
2023-02-23T04:32:39.702Z,5.37
2023-02-23T04:35:07.407Z,5.36
2023-02-23T04:37:34.280Z,5.22
2023-02-23T04:40:01.659Z,5.36
2023-02-23T04:42:28.851Z,5.30
2023-02-23T04:44:55.622Z,5.25
2023-02-23T04:47:22.448Z,5.31
2023-02-23T04:49:49.324Z,5.27
2023-02-23T04:52:16.304Z,5.29
2023-02-23T04:54:43.381Z,5.10
2023-02-23T04:57:10.307Z,5.32
2023-02-23T04:59:37.720Z,5.29
2023-02-23T05:02:04.561Z,5.33
2023-02-23T05:04:31.353Z,5.36
2023-02-23T05:06:58.253Z,5.29
2023-02-23T05:09:25.102Z,5.36
2023-02-23T05:11:51.889Z,5.36
2023-02-23T05:14:18.770Z,5.34
2023-02-23T05:16:45.529Z,5.37
2023-02-23T05:19:12.360Z,5.37
2023-02-23T05:21:39.292Z,5.39
2023-02-23T05:24:06.341Z,5.39
2023-02-23T05:26:33.410Z,5.42
2023-02-23T05:29:00.427Z,5.42
2023-02-23T05:31:28.800Z,5.32
2023-02-23T05:33:55.618Z,5.43
2023-02-23T05:36:22.560Z,5.46
2023-02-23T05:38:49.593Z,5.37
2023-02-23T05:41:21.785Z,5.52
2023-02-23T05:43:52.404Z,5.52
2023-02-23T05:46:25.108Z,5.55
2023-02-23T05:48:56.838Z,5.55
2023-02-23T05:51:23.772Z,5.42
2023-02-23T05:53:50.471Z,5.57
2023-02-23T05:56:20.571Z,5.57
2023-02-23T05:58:58.054Z,5.55
2023-02-23T06:01:26.596Z,5.63
2023-02-23T06:03:53.526Z,5.68
2023-02-23T06:06:20.595Z,5.62
2023-02-23T06:08:47.400Z,5.46
2023-02-23T06:11:14.171Z,5.58
2023-02-23T06:13:41.356Z,5.61
2023-02-23T06:16:08.693Z,5.57
2023-02-23T06:18:35.508Z,5.56
2023-02-23T06:21:03.958Z,5.52
2023-02-23T06:23:32.217Z,5.53
2023-02-23T06:26:00.127Z,5.53
2023-02-23T06:28:28.766Z,5.60
2023-02-23T06:30:56.174Z,5.48
2023-02-23T06:33:23.679Z,5.39
2023-02-23T06:35:50.514Z,5.52
2023-02-23T06:38:17.389Z,5.51
2023-02-23T06:40:44.388Z,5.57
2023-02-23T06:43:11.464Z,5.56
2023-02-23T06:45:38.280Z,5.36
2023-02-23T06:48:05.363Z,5.61
2023-02-23T06:50:32.191Z,5.55
2023-02-23T06:52:59.098Z,5.59
2023-02-23T06:55:25.844Z,5.64
2023-02-23T06:57:54.322Z,5.64
2023-02-23T07:00:21.605Z,5.61
2023-02-23T07:02:48.732Z,5.63
2023-02-23T07:05:15.484Z,5.61
2023-02-23T07:07:42.262Z,5.55
2023-02-23T07:10:09.720Z,5.71
2023-02-23T07:12:36.661Z,5.65
2023-02-23T07:15:03.729Z,5.68
2023-02-23T07:17:30.504Z,5.65
2023-02-23T07:19:57.499Z,5.73
2023-02-23T07:22:27.831Z,5.79
2023-02-23T07:24:54.540Z,5.82
2023-02-23T07:27:21.463Z,5.76
2023-02-23T07:29:48.218Z,5.75
2023-02-23T07:32:15.072Z,5.76
2023-02-23T07:34:41.880Z,5.81
2023-02-23T07:37:08.641Z,5.84
2023-02-23T07:39:35.576Z,5.84
2023-02-23T07:42:02.407Z,5.81
2023-02-23T07:44:29.882Z,5.80
2023-02-23T07:46:57.665Z,5.85
2023-02-23T07:49:25.531Z,5.84
2023-02-23T07:51:52.342Z,5.88
2023-02-23T07:54:19.095Z,5.85
2023-02-23T07:56:45.867Z,5.92
2023-02-23T07:59:12.587Z,5.86
2023-02-23T08:01:39.354Z,5.91
2023-02-23T08:04:06.601Z,5.72
2023-02-23T08:06:33.413Z,5.87
2023-02-23T08:09:03.419Z,5.86
2023-02-23T08:11:30.274Z,5.94
2023-02-23T08:14:00.090Z,5.93
2023-02-23T08:16:28.676Z,5.94
2023-02-23T08:18:58.543Z,5.90
2023-02-23T08:21:26.555Z,5.93
2023-02-23T08:23:53.507Z,5.87
2023-02-23T08:26:20.157Z,6.02
2023-02-23T08:28:47.088Z,5.86
2023-02-23T08:31:16.341Z,5.82
2023-02-23T08:33:43.142Z,5.98
2023-02-23T08:36:10.184Z,5.92
2023-02-23T08:38:36.886Z,5.90
2023-02-23T08:41:05.104Z,5.93
2023-02-23T08:43:32.406Z,5.96
2023-02-23T08:45:59.291Z,6.08
2023-02-23T08:48:26.319Z,5.98
2023-02-23T08:50:56.897Z,5.99
2023-02-23T08:53:25.587Z,6.13
2023-02-23T08:55:59.972Z,6.05
2023-02-23T08:58:28.369Z,6.13
2023-02-23T09:00:55.272Z,6.20
2023-02-23T09:03:23.391Z,6.08
2023-02-23T09:05:50.314Z,6.16
2023-02-23T09:08:17.154Z,6.12
2023-02-23T09:10:44.025Z,6.27
2023-02-23T09:13:12.142Z,6.41
2023-02-23T09:15:40.351Z,6.48
2023-02-23T09:18:10.417Z,6.65
2023-02-23T09:20:37.005Z,6.75
2023-02-23T09:23:03.704Z,6.75
2023-02-23T09:25:31.595Z,6.91
2023-02-23T09:27:59.651Z,7.17
2023-02-23T09:30:27.539Z,7.15
2023-02-23T09:32:56.431Z,7.38
2023-02-23T09:35:24.611Z,7.51
2023-02-23T09:37:54.957Z,7.55
2023-02-23T09:40:34.677Z,7.73
2023-02-23T09:43:11.855Z,7.86
2023-02-23T09:45:51.527Z,7.89
2023-02-23T09:48:22.100Z,7.88
2023-02-23T09:50:55.164Z,7.97
2023-02-23T09:53:44.680Z,7.98
2023-02-23T09:56:11.701Z,7.90
2023-02-23T09:58:38.952Z,7.75
2023-02-23T10:01:24.755Z,7.82
2023-02-23T10:04:05.646Z,7.80
2023-02-23T10:06:32.748Z,7.95
2023-02-23T10:09:23.315Z,7.94
2023-02-23T10:12:08.667Z,7.96
2023-02-23T10:15:06.613Z,7.90
2023-02-23T10:17:44.335Z,7.89
2023-02-23T10:20:26.994Z,7.94
2023-02-23T10:22:58.417Z,8.10
2023-02-23T10:25:29.049Z,8.19
2023-02-23T10:27:58.452Z,8.43
2023-02-23T10:30:29.272Z,8.44
2023-02-23T10:33:18.787Z,8.31
2023-02-23T10:35:45.732Z,8.31
2023-02-23T10:38:18.465Z,8.44
2023-02-23T10:40:49.690Z,8.53
2023-02-23T10:43:16.554Z,8.62
2023-02-23T10:45:49.621Z,8.76
2023-02-23T10:48:20.757Z,8.74
2023-02-23T10:50:53.070Z,8.66
2023-02-23T10:53:28.442Z,8.95
2023-02-23T10:56:03.029Z,8.94
2023-02-23T10:58:30.442Z,9.01
2023-02-23T11:01:00.536Z,8.81
2023-02-23T11:03:33.718Z,8.75
2023-02-23T11:06:00.663Z,8.83
2023-02-23T11:08:37.994Z,8.74
2023-02-23T11:11:17.195Z,8.84
2023-02-23T11:13:49.307Z,8.88
2023-02-23T11:16:20.142Z,9.10
2023-02-23T11:18:59.509Z,9.49
2023-02-23T11:21:36.928Z,9.64
2023-02-23T11:24:12.571Z,9.65
2023-02-23T11:26:42.359Z,9.58
2023-02-23T11:29:17.814Z,10.02
2023-02-23T11:31:52.616Z,11.37
2023-02-23T11:34:32.703Z,12.35
2023-02-23T11:37:04.967Z,12.61
2023-02-23T11:39:31.955Z,12.19
2023-02-23T11:42:27.253Z,11.54
2023-02-23T11:45:25.867Z,10.83
2023-02-23T11:47:55.625Z,10.04
2023-02-23T11:50:32.692Z,9.41
2023-02-23T11:53:17.758Z,9.16
2023-02-23T11:55:54.996Z,8.96
2023-02-23T11:58:44.555Z,8.46
2023-02-23T12:01:14.258Z,8.52
2023-02-23T12:03:49.702Z,8.28
2023-02-23T12:06:35.756Z,8.36
2023-02-23T12:09:24.280Z,8.35
2023-02-23T12:12:03.091Z,8.33
2023-02-23T12:14:36.391Z,8.25
2023-02-23T12:17:36.902Z,8.26
2023-02-23T12:20:16.607Z,8.25
2023-02-23T12:22:56.546Z,8.28
2023-02-23T12:25:38.743Z,8.27
2023-02-23T12:28:33.466Z,8.44
2023-02-23T12:31:15.975Z,8.50
2023-02-23T12:33:47.104Z,8.39
2023-02-23T12:36:26.266Z,8.46
2023-02-23T12:39:27.878Z,8.64
2023-02-23T12:42:12.988Z,8.50
2023-02-23T12:45:03.142Z,8.52
2023-02-23T12:47:49.214Z,8.48
2023-02-23T12:50:30.510Z,8.61
2023-02-23T12:53:12.645Z,8.77
2023-02-23T12:55:50.943Z,8.64
2023-02-23T12:58:29.150Z,8.80
2023-02-23T13:01:17.141Z,8.63
2023-02-23T13:03:59.442Z,8.63
2023-02-23T13:06:30.365Z,8.54
2023-02-23T13:09:24.941Z,8.50
2023-02-23T13:12:13.488Z,8.50
2023-02-23T13:15:05.244Z,8.47
2023-02-23T13:17:40.841Z,8.41
2023-02-23T13:20:17.785Z,8.36
2023-02-23T13:22:56.689Z,8.42
2023-02-23T13:25:36.979Z,8.27
2023-02-23T13:28:06.908Z,8.29
2023-02-23T13:30:35.470Z,8.34
2023-02-23T13:33:08.441Z,8.37
2023-02-23T13:35:38.436Z,8.37
2023-02-23T13:38:18.770Z,8.36
2023-02-23T13:41:10.235Z,8.31
2023-02-23T13:43:49.394Z,8.21
2023-02-23T13:46:34.561Z,8.35
2023-02-23T13:49:16.317Z,8.30
2023-02-23T13:51:55.967Z,8.25
2023-02-23T13:54:24.372Z,8.32
2023-02-23T13:56:56.140Z,8.45
2023-02-23T13:59:30.083Z,8.47
2023-02-23T14:01:59.741Z,8.54
2023-02-23T14:04:29.260Z,8.67
2023-02-23T14:07:16.607Z,8.65
2023-02-23T14:09:59.360Z,8.59
2023-02-23T14:12:35.652Z,8.46
2023-02-23T14:15:25.352Z,8.53
2023-02-23T14:18:03.064Z,8.46
2023-02-23T14:21:05.443Z,8.42
2023-02-23T14:23:50.151Z,8.29
2023-02-23T14:26:29.232Z,8.18
2023-02-23T14:29:25.678Z,8.16
2023-02-23T14:32:03.784Z,8.15
2023-02-23T14:34:57.158Z,8.10
2023-02-23T14:37:36.824Z,8.07
2023-02-23T14:40:29.548Z,8.12
2023-02-23T14:43:00.683Z,8.11
2023-02-23T14:45:38.916Z,8.07
2023-02-23T14:48:12.906Z,8.11
2023-02-23T14:50:41.383Z,8.10
2023-02-23T14:53:21.615Z,8.04
2023-02-23T14:55:49.835Z,8.03
2023-02-23T14:58:29.162Z,8.00
2023-02-23T15:00:55.994Z,7.98
2023-02-23T15:03:22.822Z,7.95
2023-02-23T15:06:10.828Z,7.98
2023-02-23T15:08:44.701Z,7.98
2023-02-23T15:11:14.429Z,7.92
2023-02-23T15:13:47.152Z,8.04
2023-02-23T15:16:24.304Z,7.93
2023-02-23T15:18:53.326Z,7.96
2023-02-23T15:21:23.346Z,7.98
2023-02-23T15:23:58.018Z,7.89
2023-02-23T15:26:32.273Z,7.65
2023-02-23T15:29:13.625Z,7.98
2023-02-23T15:31:51.218Z,7.86
2023-02-23T15:34:30.591Z,7.97
2023-02-23T15:36:58.617Z,8.01
2023-02-23T15:39:38.676Z,7.95
2023-02-23T15:42:11.060Z,7.84
2023-02-23T15:44:44.464Z,7.94
2023-02-23T15:47:28.566Z,7.94
2023-02-23T15:50:18.105Z,7.95
2023-02-23T15:52:50.932Z,7.89
2023-02-23T15:55:24.506Z,7.89
2023-02-23T15:58:00.467Z,7.84
2023-02-23T16:00:38.667Z,7.85
2023-02-23T16:03:07.533Z,7.83
2023-02-23T16:05:47.050Z,7.80
2023-02-23T16:08:23.473Z,7.83
2023-02-23T16:10:55.196Z,7.81
2023-02-23T16:13:22.594Z,7.85
2023-02-23T16:15:50.189Z,7.87
2023-02-23T16:18:26.445Z,7.84
2023-02-23T16:20:57.544Z,7.74
2023-02-23T16:23:52.725Z,7.83
2023-02-23T16:26:28.935Z,7.81
2023-02-23T16:29:02.315Z,7.80
2023-02-23T16:31:55.495Z,7.75
2023-02-23T16:34:47.675Z,7.84
2023-02-23T16:37:23.160Z,7.72
2023-02-23T16:39:50.003Z,7.82
2023-02-23T16:42:24.162Z,7.72
2023-02-23T16:44:51.066Z,7.77
2023-02-23T16:47:23.433Z,7.77
2023-02-23T16:49:50.872Z,7.61
2023-02-23T16:52:23.739Z,7.73
2023-02-23T16:54:54.523Z,7.68
2023-02-23T16:57:27.382Z,7.66
2023-02-23T16:59:55.008Z,7.64
2023-02-23T17:02:24.903Z,7.59
2023-02-23T17:04:51.790Z,7.60
2023-02-23T17:07:23.184Z,7.56
2023-02-23T17:09:50.905Z,7.58
2023-02-23T17:12:21.873Z,7.46
2023-02-23T17:14:49.778Z,7.57
2023-02-23T17:17:19.484Z,7.54
2023-02-23T17:19:46.777Z,7.56
2023-02-23T17:22:14.355Z,7.54
2023-02-23T17:24:42.952Z,7.50
2023-02-23T17:27:09.719Z,7.47
2023-02-23T17:29:36.506Z,7.47
2023-02-23T17:32:03.505Z,7.55
2023-02-23T17:34:31.297Z,7.52
2023-02-23T17:36:58.110Z,7.53
2023-02-23T17:39:28.129Z,7.41
2023-02-23T17:41:56.027Z,7.43
2023-02-23T17:44:23.051Z,7.51
2023-02-23T17:46:50.001Z,7.51
2023-02-23T17:49:16.833Z,7.52
2023-02-23T17:51:43.616Z,7.41
2023-02-23T17:54:10.376Z,7.39
2023-02-23T17:56:37.302Z,7.49
2023-02-23T17:59:04.089Z,7.49
2023-02-23T18:01:31.107Z,7.49
2023-02-23T18:03:59.375Z,7.48
2023-02-23T18:06:26.306Z,7.51
2023-02-23T18:08:53.030Z,7.38
2023-02-23T18:11:19.933Z,7.39
2023-02-23T18:13:48.291Z,7.46
2023-02-23T18:16:16.191Z,7.48
2023-02-23T18:18:46.961Z,7.48
2023-02-23T18:21:17.453Z,7.49
2023-02-23T18:23:44.321Z,7.36
2023-02-23T18:26:17.139Z,7.44
2023-02-23T18:28:45.777Z,7.41
2023-02-23T18:31:20.594Z,7.41
2023-02-23T18:33:49.952Z,7.38
2023-02-23T18:36:28.386Z,7.33
2023-02-23T18:38:56.812Z,7.30
2023-02-23T18:41:24.102Z,7.30
2023-02-23T18:43:51.086Z,7.27
2023-02-23T18:46:17.931Z,7.26
2023-02-23T18:48:44.860Z,7.26
2023-02-23T18:51:14.295Z,7.17
2023-02-23T18:53:42.005Z,7.25
2023-02-23T18:56:22.977Z,7.24
2023-02-23T18:58:54.797Z,7.23
2023-02-23T19:01:24.958Z,7.22
2023-02-23T19:03:53.510Z,7.23
2023-02-23T19:06:22.497Z,7.22
2023-02-23T19:08:54.716Z,7.19
2023-02-23T19:11:24.641Z,7.20
2023-02-23T19:13:56.964Z,7.19
2023-02-23T19:16:25.701Z,7.20
2023-02-23T19:18:52.656Z,7.09
2023-02-23T19:21:23.575Z,7.20
2023-02-23T19:23:52.453Z,7.17
2023-02-23T19:26:20.345Z,7.16
2023-02-23T19:28:48.147Z,7.17
2023-02-23T19:31:20.566Z,7.17
2023-02-23T19:33:49.567Z,7.17
2023-02-23T19:36:23.005Z,7.13
2023-02-23T19:38:50.146Z,7.11
2023-02-23T19:41:20.743Z,7.06
2023-02-23T19:43:47.740Z,6.95
2023-02-23T19:46:17.306Z,7.03
2023-02-23T19:48:48.725Z,7.03
2023-02-23T19:51:15.618Z,7.02
2023-02-23T19:53:42.564Z,7.03
2023-02-23T19:56:12.770Z,6.94
2023-02-23T19:58:44.716Z,7.03
2023-02-23T20:01:16.872Z,7.03
2023-02-23T20:03:45.840Z,6.94
2023-02-23T20:06:14.147Z,6.90
2023-02-23T20:08:46.093Z,7.03
2023-02-23T20:11:12.898Z,6.98
2023-02-23T20:13:40.150Z,7.02
2023-02-23T20:16:09.519Z,6.87
2023-02-23T20:18:38.540Z,7.01
2023-02-23T20:21:23.316Z,7.00
2023-02-23T20:23:50.844Z,6.86
2023-02-23T20:26:31.108Z,6.93
2023-02-23T20:28:58.749Z,6.97
2023-02-23T20:31:30.759Z,6.95
2023-02-23T20:34:01.162Z,6.96
2023-02-23T20:36:28.051Z,6.82
2023-02-23T20:38:54.808Z,6.92
2023-02-23T20:41:22.639Z,6.83
2023-02-23T20:43:51.548Z,6.80
2023-02-23T20:46:19.818Z,6.81
2023-02-23T20:48:49.118Z,6.89
2023-02-23T20:51:18.023Z,6.86
2023-02-23T20:53:47.086Z,6.80
2023-02-23T20:56:16.835Z,6.81
2023-02-23T20:58:44.045Z,6.72
2023-02-23T21:01:15.863Z,6.72
2023-02-23T21:03:42.811Z,6.70
2023-02-23T21:06:09.922Z,6.69
2023-02-23T21:08:39.925Z,6.58
2023-02-23T21:11:07.771Z,6.68
2023-02-23T21:13:35.506Z,6.67
2023-02-23T21:16:03.269Z,6.70
2023-02-23T21:18:31.125Z,6.71
2023-02-23T21:21:09.979Z,6.71
2023-02-23T21:23:38.902Z,6.69
2023-02-23T21:26:16.144Z,6.59
2023-02-23T21:28:44.834Z,6.60
2023-02-23T21:31:13.607Z,6.72
2023-02-23T21:33:42.448Z,6.71
2023-02-23T21:36:10.811Z,6.71
2023-02-23T21:38:39.298Z,6.71
2023-02-23T21:41:06.580Z,6.63
2023-02-23T21:43:37.940Z,6.59
2023-02-23T21:46:16.262Z,6.63
2023-02-23T21:48:43.693Z,6.62
2023-02-23T21:51:13.380Z,6.47
2023-02-23T21:53:41.227Z,6.58
2023-02-23T21:56:15.722Z,6.57
2023-02-23T21:58:48.450Z,6.55
2023-02-23T22:01:28.027Z,6.58
2023-02-23T22:03:55.284Z,6.53
2023-02-23T22:06:25.366Z,6.49
2023-02-23T22:08:53.054Z,6.42
2023-02-23T22:11:24.835Z,6.48
2023-02-23T22:13:54.670Z,6.52
2023-02-23T22:16:21.851Z,6.45
2023-02-23T22:18:48.677Z,6.53
2023-02-23T22:21:15.643Z,6.52
2023-02-23T22:23:50.213Z,6.50
2023-02-23T22:26:17.888Z,6.47
2023-02-23T22:28:45.010Z,6.51
2023-02-23T22:31:13.996Z,6.44
2023-02-23T22:33:43.787Z,6.46
2023-02-23T22:36:14.801Z,6.59
2023-02-23T22:38:42.936Z,6.62
2023-02-23T22:41:10.587Z,6.65
2023-02-23T22:43:38.283Z,6.70
2023-02-23T22:46:06.445Z,6.64
2023-02-23T22:48:33.798Z,6.68
2023-02-23T22:51:01.234Z,6.65
2023-02-23T22:53:28.592Z,6.64
2023-02-23T22:55:56.373Z,6.64
2023-02-23T22:58:24.506Z,6.55
2023-02-23T23:01:04.695Z,6.67
2023-02-23T23:03:45.985Z,6.61
2023-02-23T23:06:22.381Z,6.72
2023-02-23T23:08:51.888Z,6.69
2023-02-23T23:11:22.095Z,6.59
2023-02-23T23:13:51.959Z,6.71
2023-02-23T23:16:31.214Z,6.70
2023-02-23T23:19:12.159Z,6.74
2023-02-23T23:21:41.024Z,6.73
2023-02-23T23:24:09.319Z,6.56
2023-02-23T23:26:40.805Z,6.73
2023-02-23T23:29:11.347Z,6.65
2023-02-23T23:31:40.493Z,6.70
2023-02-23T23:34:10.613Z,6.57
2023-02-23T23:36:42.880Z,6.67
2023-02-23T23:39:16.325Z,6.61
2023-02-23T23:41:48.072Z,6.57
2023-02-23T23:44:20.833Z,6.49
2023-02-23T23:46:50.839Z,6.50
2023-02-23T23:49:21.544Z,6.42
2023-02-23T23:51:51.662Z,6.48
2023-02-23T23:54:32.529Z,6.35
2023-02-23T23:57:03.810Z,6.38
2023-02-23T23:59:31.858Z,6.39
